Time,TemperatureF,DewpointF,PressureIn,WindDirection,WindDirectionDegrees,WindSpeedMPH,WindSpeedGustMPH,Humidity,HourlyPrecipIn,Conditions,Clouds,dailyrainin,SoftwareType,DateUTC
2013-07-09 00:01:00,72.0,-99.9,-100.00,NE,40,0.0,1.0,-999,0.00,,,-99.99,,2013-07-09 04:01:00,
2013-07-09 00:02:00,72.0,-99.9,-100.00,NE,50,0.0,2.0,-999,0.55,,,-99.99,,2013-07-09 04:02:00,
2013-07-09 00:11:00,72.0,-99.9,-100.00,SW,230,1.0,4.0,-999,1.69,,,-99.99,,2013-07-09 04:11:00,
2013-07-09 00:22:00,72.0,-99.9,-100.00,East,95,0.0,2.0,-999,1.10,,,-99.99,,2013-07-09 04:22:00,
2013-07-09 00:43:00,72.0,-99.9,-100.00,ENE,75,2.0,6.0,-999,0.00,,,-99.99,,2013-07-09 04:43:00,
2013-07-09 01:02:00,72.0,-99.9,-100.00,ENE,65,2.0,7.0,-999,0.00,,,-99.99,,2013-07-09 05:02:00,
2013-07-09 01:22:00,71.0,-99.9,-100.00,NE,55,4.0,7.0,-999,0.55,,,-99.99,,2013-07-09 05:22:00,
2013-07-09 01:52:00,70.0,-99.9,-100.00,NE,40,1.0,6.0,-999,0.00,,,-99.99,,2013-07-09 05:52:00,
2013-07-09 02:02:00,69.0,-99.9,-100.00,ENE,60,6.0,7.0,-999,0.00,,,-99.99,,2013-07-09 06:02:00,
2013-07-09 02:12:00,69.0,-99.9,-100.00,East,90,2.0,9.0,-999,0.00,,,-99.99,,2013-07-09 06:12:00,
2013-07-09 02:43:00,69.0,-99.9,-100.00,SW,225,1.0,2.0,-999,0.00,,,-99.99,,2013-07-09 06:43:00,
2013-07-09 02:53:00,69.0,-99.9,-100.00,NE,45,0.0,1.0,-999,0.00,,,-99.99,,2013-07-09 06:53:00,
2013-07-09 03:02:00,69.0,-99.9,-100.00,East,100,0.0,2.0,-999,0.00,,,-99.99,,2013-07-09 07:02:00,
2013-07-09 03:12:00,69.0,-99.9,-100.00,ENE,65,2.0,3.0,-999,0.00,,,-99.99,,2013-07-09 07:12:00,
2013-07-09 03:34:00,69.0,-99.9,-100.00,ENE,75,1.0,2.0,-999,0.00,,,-99.99,,2013-07-09 07:34:00,
2013-07-09 03:53:00,69.0,-99.9,-100.00,NNW,340,0.0,2.0,-999,0.00,,,-99.99,,2013-07-09 07:53:00,
2013-07-09 04:01:00,69.0,-99.9,-100.00,North,10,1.0,1.0,-999,0.00,,,-99.99,,2013-07-09 08:01:00,
2013-07-09 04:33:00,70.0,-99.9,-100.00,East,90,0.0,3.0,-999,0.00,,,-99.99,,2013-07-09 08:33:00,
2013-07-09 04:52:00,70.0,-99.9,-100.00,NE,55,2.0,7.0,-999,0.00,,,-99.99,,2013-07-09 08:52:00,
2013-07-09 05:02:00,70.0,-99.9,-100.00,North,355,0.0,3.0,-999,0.00,,,-99.99,,2013-07-09 09:02:00,
2013-07-09 05:12:00,70.0,-99.9,-100.00,NNE,30,0.0,3.0,-999,0.00,,,-99.99,,2013-07-09 09:12:00,
2013-07-09 05:43:00,71.0,-99.9,-100.00,SW,235,2.0,5.0,-999,0.00,,,-99.99,,2013-07-09 09:43:00,
2013-07-09 06:02:00,71.0,-99.9,-100.00,SW,220,1.0,5.0,-999,0.00,,,-99.99,,2013-07-09 10:02:00,
2013-07-09 06:22:00,71.0,-99.9,-100.00,NE,55,0.0,4.0,-999,0.00,,,-99.99,,2013-07-09 10:22:00,
2013-07-09 06:33:00,71.0,70.0,-100.00,SW,230,4.0,6.0,95,0.00,,,-99.99,,2013-07-09 10:33:00,
2013-07-09 06:52:00,70.0,-99.9,-100.00,SW,215,2.0,4.0,-999,0.00,,,-99.99,,2013-07-09 10:52:00,
2013-07-09 07:11:00,70.0,-99.9,-100.00,ENE,70,0.0,2.0,-999,0.00,,,-99.99,,2013-07-09 11:11:00,
2013-07-09 07:34:00,70.0,-99.9,-100.00,ENE,70,0.0,4.0,-999,0.00,,,-99.99,,2013-07-09 11:34:00,
2013-07-09 07:53:00,70.0,-99.9,-100.00,SSW,210,4.0,7.0,-999,0.00,,,-99.99,,2013-07-09 11:53:00,
2013-07-09 08:22:00,71.0,70.0,-100.00,SSW,210,4.0,6.0,95,0.00,,,-99.99,,2013-07-09 12:22:00,
2013-07-09 08:33:00,71.0,-99.9,-100.00,SW,215,2.0,6.0,-999,0.00,,,-99.99,,2013-07-09 12:33:00,
2013-07-09 09:11:00,74.0,71.0,-100.00,SSW,205,3.0,6.0,91,0.00,,,-99.99,,2013-07-09 13:11:00,
2013-07-09 09:43:00,76.0,72.0,-100.00,SSW,200,2.0,4.0,88,0.00,,,-99.99,,2013-07-09 13:43:00,
2013-07-09 09:53:00,76.0,72.0,-100.00,SSW,200,2.0,4.0,88,0.00,,,-99.99,,2013-07-09 13:53:00,
2013-07-09 10:11:00,77.0,71.0,-100.00,SSW,200,3.0,10.0,82,0.00,,,-99.99,,2013-07-09 14:11:00,
2013-07-09 10:22:00,76.0,70.0,-100.00,SSW,210,6.0,9.0,81,0.00,,,-99.99,,2013-07-09 14:22:00,
2013-07-09 10:34:00,76.0,71.0,-100.00,SW,230,4.0,8.0,83,0.00,,,-99.99,,2013-07-09 14:34:00,
2013-07-09 10:43:00,78.0,70.0,-100.00,SW,220,2.0,6.0,76,0.00,,,-99.99,,2013-07-09 14:43:00,
2013-07-09 11:02:00,78.0,70.0,-100.00,SW,230,6.0,9.0,76,0.00,,,-99.99,,2013-07-09 15:02:00,
2013-07-09 11:22:00,79.0,71.0,-100.00,SE,130,1.0,6.0,77,0.00,,,-99.99,,2013-07-09 15:22:00,
2013-07-09 11:33:00,78.0,71.0,-100.00,SW,230,4.0,7.0,79,0.00,,,-99.99,,2013-07-09 15:33:00,
2013-07-09 11:52:00,79.0,71.0,-100.00,South,180,2.0,6.0,76,0.00,,,-99.99,,2013-07-09 15:52:00,
2013-07-09 12:02:00,80.0,71.0,-100.00,WSW,240,3.0,7.0,74,0.00,,,-99.99,,2013-07-09 16:02:00,
2013-07-09 12:22:00,81.0,72.0,-100.00,SW,215,7.0,10.0,74,0.00,,,-99.99,,2013-07-09 16:22:00,
2013-07-09 12:52:00,83.0,72.0,-100.00,SW,230,6.0,10.0,68,0.00,,,-99.99,,2013-07-09 16:52:00,
2013-07-09 13:11:00,83.0,73.0,-100.00,South,175,3.0,9.0,70,0.00,,,-99.99,,2013-07-09 17:11:00,
2013-07-09 13:53:00,86.0,73.0,-100.00,SW,225,5.0,11.0,65,0.00,,,-99.99,,2013-07-09 17:53:00,
2013-07-09 14:02:00,86.0,74.0,-100.00,WSW,250,5.0,11.0,65,0.00,,,-99.99,,2013-07-09 18:02:00,
2013-07-09 14:11:00,85.0,73.0,-100.00,SW,220,6.0,11.0,67,0.00,,,-99.99,,2013-07-09 18:11:00,
2013-07-09 14:22:00,86.0,73.0,-100.00,WSW,250,7.0,12.0,63,0.00,,,-99.99,,2013-07-09 18:22:00,
2013-07-09 14:32:00,85.0,73.0,-100.00,SW,215,6.0,12.0,67,0.00,,,-99.99,,2013-07-09 18:32:00,
2013-07-09 14:52:00,87.0,73.0,-100.00,SW,215,6.0,11.0,63,0.00,,,-99.99,,2013-07-09 18:52:00,
2013-07-09 15:42:00,85.0,73.0,-100.00,WSW,250,6.0,12.0,67,0.00,,,-99.99,,2013-07-09 19:42:00,
2013-07-09 15:52:00,84.0,70.0,-100.00,SSW,205,7.0,17.0,64,0.00,,,-99.99,,2013-07-09 19:52:00,
2013-07-09 16:02:00,85.0,72.0,-100.00,SSW,205,7.0,11.0,65,0.00,,,-99.99,,2013-07-09 20:02:00,
2013-07-09 16:22:00,83.0,70.0,-100.00,SW,215,7.0,12.0,64,0.00,,,-99.99,,2013-07-09 20:22:00,
2013-07-09 16:32:00,83.0,70.0,-100.00,SSW,200,4.0,8.0,65,0.00,,,-99.99,,2013-07-09 20:32:00,
2013-07-09 16:43:00,81.0,72.0,-100.00,SW,225,3.0,7.0,74,0.00,,,-99.99,,2013-07-09 20:43:00,
2013-07-09 16:52:00,81.0,72.0,-100.00,SW,225,3.0,7.0,74,0.00,,,-99.99,,2013-07-09 20:52:00,
2013-07-09 17:22:00,79.0,73.0,-100.00,South,180,2.0,5.0,81,0.00,,,-99.99,,2013-07-09 21:22:00,
2013-07-09 17:32:00,79.0,74.0,-100.00,SSW,210,1.0,4.0,83,0.00,,,-99.99,,2013-07-09 21:32:00,
2013-07-09 17:42:00,79.0,74.0,-100.00,SW,235,3.0,6.0,82,0.00,,,-99.99,,2013-07-09 21:42:00,
2013-07-09 17:52:00,79.0,74.0,-100.00,SSW,210,4.0,6.0,85,0.00,,,-99.99,,2013-07-09 21:52:00,
2013-07-09 18:33:00,69.0,-99.9,-100.00,SSE,155,1.0,7.0,-999,10.20,,,-99.99,,2013-07-09 22:33:00,
2013-07-09 18:42:00,70.0,-99.9,-100.00,East,95,1.0,4.0,-999,0.00,,,-99.99,,2013-07-09 22:42:00,
2013-07-09 18:53:00,70.0,-99.9,-100.00,East,95,1.0,4.0,-999,0.00,,,-99.99,,2013-07-09 22:53:00,
2013-07-09 20:22:00,71.0,-99.9,-100.00,ESE,110,0.0,2.0,-999,0.00,,,-99.99,,2013-07-10 00:22:00,
2013-07-09 20:33:00,71.0,-99.9,-100.00,WSW,240,1.0,2.0,-999,0.00,,,-99.99,,2013-07-10 00:33:00,
2013-07-09 20:52:00,71.0,-99.9,-100.00,NE,35,0.0,2.0,-999,0.00,,,-99.99,,2013-07-10 00:52:00,
2013-07-09 21:01:00,71.0,-99.9,-100.00,West,260,0.0,2.0,-999,0.00,,,-99.99,,2013-07-10 01:01:00,
2013-07-09 21:33:00,71.0,-99.9,-100.00,NW,325,0.0,1.0,-999,0.00,,,-99.99,,2013-07-10 01:33:00,
2013-07-09 22:02:00,71.0,-99.9,-100.00,SW,230,1.0,3.0,-999,0.00,,,-99.99,,2013-07-10 02:02:00,
2013-07-09 22:12:00,71.0,-99.9,-100.00,East,95,0.0,2.0,-999,0.00,,,-99.99,,2013-07-10 02:12:00,
2013-07-09 22:43:00,71.0,-99.9,-100.00,West,280,1.0,2.0,-999,0.00,,,-99.99,,2013-07-10 02:43:00,
2013-07-09 23:43:00,71.0,-99.9,-100.00,NNW,345,0.0,1.0,-999,0.00,,,-99.99,,2013-07-10 03:43:00,